sensor_id;sensor_type;location;lat;lon;timestamp;P1;durP1;ratioP1;P2;durP2;ratioP2
59366;SDS011;45163;47.690;11.770;2022-07-23T00:02:11;6.70;;;4.63;;
59366;SDS011;45163;47.690;11.770;2022-07-23T00:04:37;4.30;;;3.90;;
59366;SDS011;45163;47.690;11.770;2022-07-23T00:07:03;7.20;;;3.90;;
59366;SDS011;45163;47.690;11.770;2022-07-23T00:09:29;4.93;;;4.20;;
59366;SDS011;45163;47.690;11.770;2022-07-23T00:11:56;5.43;;;4.33;;
59366;SDS011;45163;47.690;11.770;2022-07-23T00:14:22;4.47;;;4.07;;
59366;SDS011;45163;47.690;11.770;2022-07-23T00:16:48;5.10;;;4.33;;
59366;SDS011;45163;47.690;11.770;2022-07-23T00:19:14;4.30;;;3.90;;
59366;SDS011;45163;47.690;11.770;2022-07-23T00:21:41;6.60;;;3.80;;
59366;SDS011;45163;47.690;11.770;2022-07-23T00:24:07;5.00;;;4.20;;
59366;SDS011;45163;47.690;11.770;2022-07-23T00:26:33;6.60;;;4.20;;
59366;SDS011;45163;47.690;11.770;2022-07-23T00:28:59;5.07;;;4.13;;
59366;SDS011;45163;47.690;11.770;2022-07-23T00:31:25;4.67;;;4.27;;
59366;SDS011;45163;47.690;11.770;2022-07-23T00:33:53;4.90;;;4.20;;
59366;SDS011;45163;47.690;11.770;2022-07-23T00:36:22;5.27;;;4.50;;
59366;SDS011;45163;47.690;11.770;2022-07-23T00:38:49;6.43;;;4.73;;
59366;SDS011;45163;47.690;11.770;2022-07-23T00:41:15;4.80;;;4.30;;
59366;SDS011;45163;47.690;11.770;2022-07-23T00:43:41;6.13;;;4.23;;
59366;SDS011;45163;47.690;11.770;2022-07-23T00:46:07;5.07;;;4.57;;
59366;SDS011;45163;47.690;11.770;2022-07-23T00:48:33;4.90;;;4.40;;
59366;SDS011;45163;47.690;11.770;2022-07-23T00:50:59;7.10;;;4.17;;
59366;SDS011;45163;47.690;11.770;2022-07-23T00:53:25;4.87;;;4.37;;
59366;SDS011;45163;47.690;11.770;2022-07-23T00:55:51;4.53;;;4.13;;
59366;SDS011;45163;47.690;11.770;2022-07-23T00:58:19;4.87;;;4.20;;
59366;SDS011;45163;47.690;11.770;2022-07-23T01:00:45;5.43;;;4.27;;
59366;SDS011;45163;47.690;11.770;2022-07-23T01:03:11;5.10;;;4.33;;
59366;SDS011;45163;47.690;11.770;2022-07-23T01:05:37;5.20;;;4.20;;
59366;SDS011;45163;47.690;11.770;2022-07-23T01:08:05;4.07;;;3.57;;
59366;SDS011;45163;47.690;11.770;2022-07-23T01:10:31;6.13;;;3.73;;
59366;SDS011;45163;47.690;11.770;2022-07-23T01:13:02;4.87;;;4.20;;
59366;SDS011;45163;47.690;11.770;2022-07-23T01:15:33;4.80;;;4.20;;
59366;SDS011;45163;47.690;11.770;2022-07-23T01:18:01;9.50;;;4.10;;
59366;SDS011;45163;47.690;11.770;2022-07-23T01:20:29;4.63;;;4.20;;
59366;SDS011;45163;47.690;11.770;2022-07-23T01:22:55;4.73;;;3.93;;
59366;SDS011;45163;47.690;11.770;2022-07-23T01:25:22;5.07;;;4.57;;
59366;SDS011;45163;47.690;11.770;2022-07-23T01:27:48;5.13;;;4.47;;
59366;SDS011;45163;47.690;11.770;2022-07-23T01:30:15;4.50;;;4.10;;
59366;SDS011;45163;47.690;11.770;2022-07-23T01:32:41;5.37;;;4.47;;
59366;SDS011;45163;47.690;11.770;2022-07-23T01:35:07;4.43;;;4.03;;
59366;SDS011;45163;47.690;11.770;2022-07-23T01:37:35;4.73;;;4.33;;
59366;SDS011;45163;47.690;11.770;2022-07-23T01:40:01;4.60;;;3.90;;
59366;SDS011;45163;47.690;11.770;2022-07-23T01:42:28;4.93;;;4.43;;
59366;SDS011;45163;47.690;11.770;2022-07-23T01:44:54;7.27;;;4.77;;
59366;SDS011;45163;47.690;11.770;2022-07-23T01:47:20;8.13;;;5.03;;
59366;SDS011;45163;47.690;11.770;2022-07-23T01:49:46;4.97;;;4.47;;
59366;SDS011;45163;47.690;11.770;2022-07-23T01:52:13;5.00;;;4.37;;
59366;SDS011;45163;47.690;11.770;2022-07-23T01:54:39;4.83;;;4.43;;
59366;SDS011;45163;47.690;11.770;2022-07-23T01:57:05;6.27;;;5.00;;
59366;SDS011;45163;47.690;11.770;2022-07-23T01:59:32;6.30;;;4.90;;
59366;SDS011;45163;47.690;11.770;2022-07-23T02:01:58;6.87;;;5.43;;
59366;SDS011;45163;47.690;11.770;2022-07-23T02:04:24;5.83;;;5.23;;
59366;SDS011;45163;47.690;11.770;2022-07-23T02:06:51;6.67;;;5.20;;
59366;SDS011;45163;47.690;11.770;2022-07-23T02:09:18;7.17;;;5.43;;
59366;SDS011;45163;47.690;11.770;2022-07-23T02:11:44;8.67;;;5.30;;
59366;SDS011;45163;47.690;11.770;2022-07-23T02:14:10;8.90;;;5.43;;
59366;SDS011;45163;47.690;11.770;2022-07-23T02:16:36;8.27;;;5.27;;
59366;SDS011;45163;47.690;11.770;2022-07-23T02:19:03;6.80;;;4.73;;
59366;SDS011;45163;47.690;11.770;2022-07-23T02:21:29;6.67;;;5.33;;
59366;SDS011;45163;47.690;11.770;2022-07-23T02:23:55;8.27;;;5.40;;
59366;SDS011;45163;47.690;11.770;2022-07-23T02:26:21;7.23;;;5.00;;
59366;SDS011;45163;47.690;11.770;2022-07-23T02:28:47;6.63;;;5.73;;
59366;SDS011;45163;47.690;11.770;2022-07-23T02:31:13;5.43;;;4.77;;
59366;SDS011;45163;47.690;11.770;2022-07-23T02:33:39;6.67;;;5.63;;
59366;SDS011;45163;47.690;11.770;2022-07-23T02:36:05;5.47;;;4.97;;
59366;SDS011;45163;47.690;11.770;2022-07-23T02:38:31;6.23;;;5.13;;
59366;SDS011;45163;47.690;11.770;2022-07-23T02:40:57;5.53;;;4.80;;
59366;SDS011;45163;47.690;11.770;2022-07-23T02:43:23;5.70;;;5.10;;
59366;SDS011;45163;47.690;11.770;2022-07-23T02:45:49;6.27;;;4.63;;
59366;SDS011;45163;47.690;11.770;2022-07-23T02:48:15;8.37;;;5.10;;
59366;SDS011;45163;47.690;11.770;2022-07-23T02:50:41;7.83;;;4.97;;
59366;SDS011;45163;47.690;11.770;2022-07-23T02:53:07;5.73;;;4.87;;
59366;SDS011;45163;47.690;11.770;2022-07-23T02:55:33;5.47;;;4.23;;
59366;SDS011;45163;47.690;11.770;2022-07-23T02:57:59;5.50;;;5.00;;
59366;SDS011;45163;47.690;11.770;2022-07-23T03:00:25;7.00;;;5.20;;
59366;SDS011;45163;47.690;11.770;2022-07-23T03:02:51;6.13;;;4.90;;
59366;SDS011;45163;47.690;11.770;2022-07-23T03:05:17;6.63;;;6.00;;
59366;SDS011;45163;47.690;11.770;2022-07-23T03:07:43;8.00;;;5.60;;
59366;SDS011;45163;47.690;11.770;2022-07-23T03:10:09;5.83;;;5.27;;
59366;SDS011;45163;47.690;11.770;2022-07-23T03:12:35;6.13;;;5.43;;
59366;SDS011;45163;47.690;11.770;2022-07-23T03:15:01;6.47;;;5.43;;
59366;SDS011;45163;47.690;11.770;2022-07-23T03:17:27;6.90;;;5.77;;
59366;SDS011;45163;47.690;11.770;2022-07-23T03:19:53;7.80;;;5.50;;
59366;SDS011;45163;47.690;11.770;2022-07-23T03:22:19;8.40;;;5.90;;
59366;SDS011;45163;47.690;11.770;2022-07-23T03:24:45;7.40;;;5.90;;
59366;SDS011;45163;47.690;11.770;2022-07-23T03:27:29;6.67;;;5.83;;
59366;SDS011;45163;47.690;11.770;2022-07-23T03:29:56;7.17;;;5.70;;
59366;SDS011;45163;47.690;11.770;2022-07-23T03:32:23;9.63;;;6.27;;
59366;SDS011;45163;47.690;11.770;2022-07-23T03:34:50;8.37;;;6.03;;
59366;SDS011;45163;47.690;11.770;2022-07-23T03:37:17;7.27;;;6.30;;
59366;SDS011;45163;47.690;11.770;2022-07-23T03:39:43;8.43;;;6.47;;
59366;SDS011;45163;47.690;11.770;2022-07-23T03:42:10;8.60;;;6.90;;
59366;SDS011;45163;47.690;11.770;2022-07-23T03:44:36;7.10;;;6.40;;
59366;SDS011;45163;47.690;11.770;2022-07-23T03:47:04;7.23;;;6.53;;
59366;SDS011;45163;47.690;11.770;2022-07-23T03:49:31;7.93;;;6.47;;
59366;SDS011;45163;47.690;11.770;2022-07-23T03:51:58;10.40;;;6.80;;
59366;SDS011;45163;47.690;11.770;2022-07-23T03:54:24;7.50;;;6.70;;
59366;SDS011;45163;47.690;11.770;2022-07-23T03:56:50;8.07;;;7.13;;
59366;SDS011;45163;47.690;11.770;2022-07-23T03:59:16;7.97;;;6.97;;
59366;SDS011;45163;47.690;11.770;2022-07-23T04:01:42;8.53;;;7.33;;
59366;SDS011;45163;47.690;11.770;2022-07-23T04:04:08;9.03;;;7.33;;
59366;SDS011;45163;47.690;11.770;2022-07-23T04:06:34;9.77;;;7.63;;
59366;SDS011;45163;47.690;11.770;2022-07-23T04:09:01;8.33;;;7.07;;
59366;SDS011;45163;47.690;11.770;2022-07-23T04:11:27;14.33;;;7.57;;
59366;SDS011;45163;47.690;11.770;2022-07-23T04:13:53;8.10;;;7.27;;
59366;SDS011;45163;47.690;11.770;2022-07-23T04:16:19;8.33;;;6.83;;
59366;SDS011;45163;47.690;11.770;2022-07-23T04:18:45;8.93;;;6.83;;
59366;SDS011;45163;47.690;11.770;2022-07-23T04:21:11;9.50;;;6.67;;
59366;SDS011;45163;47.690;11.770;2022-07-23T04:23:37;9.87;;;6.60;;
59366;SDS011;45163;47.690;11.770;2022-07-23T04:26:03;9.50;;;6.53;;
59366;SDS011;45163;47.690;11.770;2022-07-23T04:28:29;8.60;;;6.50;;
59366;SDS011;45163;47.690;11.770;2022-07-23T04:30:58;13.30;;;6.33;;
59366;SDS011;45163;47.690;11.770;2022-07-23T04:33:24;10.47;;;6.70;;
59366;SDS011;45163;47.690;11.770;2022-07-23T04:35:50;7.13;;;6.00;;
59366;SDS011;45163;47.690;11.770;2022-07-23T04:38:16;9.17;;;6.47;;
59366;SDS011;45163;47.690;11.770;2022-07-23T04:40:42;6.57;;;5.87;;
59366;SDS011;45163;47.690;11.770;2022-07-23T04:43:08;14.77;;;6.30;;
59366;SDS011;45163;47.690;11.770;2022-07-23T04:45:34;7.57;;;6.73;;
59366;SDS011;45163;47.690;11.770;2022-07-23T04:48:00;8.23;;;6.00;;
59366;SDS011;45163;47.690;11.770;2022-07-23T04:50:26;6.97;;;6.27;;
59366;SDS011;45163;47.690;11.770;2022-07-23T04:52:52;7.30;;;6.40;;
59366;SDS011;45163;47.690;11.770;2022-07-23T04:55:20;7.13;;;5.63;;
59366;SDS011;45163;47.690;11.770;2022-07-23T04:57:46;5.93;;;5.33;;
59366;SDS011;45163;47.690;11.770;2022-07-23T05:00:12;6.07;;;5.47;;
59366;SDS011;45163;47.690;11.770;2022-07-23T05:02:38;5.90;;;5.40;;
59366;SDS011;45163;47.690;11.770;2022-07-23T05:05:04;6.37;;;5.43;;
59366;SDS011;45163;47.690;11.770;2022-07-23T05:07:30;8.03;;;5.47;;
59366;SDS011;45163;47.690;11.770;2022-07-23T05:09:56;6.60;;;6.00;;
59366;SDS011;45163;47.690;11.770;2022-07-23T05:12:22;5.80;;;5.23;;
59366;SDS011;45163;47.690;11.770;2022-07-23T05:14:48;6.23;;;5.10;;
59366;SDS011;45163;47.690;11.770;2022-07-23T05:17:14;6.00;;;5.40;;
59366;SDS011;45163;47.690;11.770;2022-07-23T05:19:40;7.20;;;5.07;;
59366;SDS011;45163;47.690;11.770;2022-07-23T05:22:06;4.97;;;4.47;;
59366;SDS011;45163;47.690;11.770;2022-07-23T05:24:32;6.10;;;4.73;;
59366;SDS011;45163;47.690;11.770;2022-07-23T05:26:58;4.47;;;3.60;;
59366;SDS011;45163;47.690;11.770;2022-07-23T05:29:24;5.30;;;3.80;;
59366;SDS011;45163;47.690;11.770;2022-07-23T05:31:50;9.97;;;4.33;;
59366;SDS011;45163;47.690;11.770;2022-07-23T05:34:16;4.40;;;4.00;;
59366;SDS011;45163;47.690;11.770;2022-07-23T05:36:42;4.20;;;3.80;;
59366;SDS011;45163;47.690;11.770;2022-07-23T05:39:08;5.90;;;4.30;;
59366;SDS011;45163;47.690;11.770;2022-07-23T05:41:34;5.47;;;4.23;;
59366;SDS011;45163;47.690;11.770;2022-07-23T05:44:00;5.73;;;4.50;;
59366;SDS011;45163;47.690;11.770;2022-07-23T05:46:26;4.60;;;4.20;;
59366;SDS011;45163;47.690;11.770;2022-07-23T05:48:52;4.70;;;3.87;;
59366;SDS011;45163;47.690;11.770;2022-07-23T05:51:22;5.03;;;4.00;;
59366;SDS011;45163;47.690;11.770;2022-07-23T05:53:49;5.77;;;4.20;;
59366;SDS011;45163;47.690;11.770;2022-07-23T05:56:15;5.40;;;3.83;;
59366;SDS011;45163;47.690;11.770;2022-07-23T05:58:42;4.27;;;3.83;;
59366;SDS011;45163;47.690;11.770;2022-07-23T06:01:08;8.20;;;3.97;;
59366;SDS011;45163;47.690;11.770;2022-07-23T06:03:34;5.00;;;4.27;;
59366;SDS011;45163;47.690;11.770;2022-07-23T06:06:01;4.77;;;4.30;;
59366;SDS011;45163;47.690;11.770;2022-07-23T06:08:27;5.67;;;3.73;;
59366;SDS011;45163;47.690;11.770;2022-07-23T06:10:52;4.70;;;4.00;;
59366;SDS011;45163;47.690;11.770;2022-07-23T06:13:18;5.70;;;3.40;;
59366;SDS011;45163;47.690;11.770;2022-07-23T09:19:37;3.63;;;3.25;;
59366;SDS011;45163;47.690;11.770;2022-07-23T09:25:08;9.85;;;3.22;;
59366;SDS011;45163;47.690;11.770;2022-07-23T09:30:13;3.80;;;3.05;;
59366;SDS011;45163;47.690;11.770;2022-07-23T09:32:40;4.13;;;3.13;;
59366;SDS011;45163;47.690;11.770;2022-07-23T09:35:06;3.33;;;3.03;;
59366;SDS011;45163;47.690;11.770;2022-07-23T09:37:35;3.95;;;2.58;;
59366;SDS011;45163;47.690;11.770;2022-07-23T09:40:07;3.20;;;2.88;;
59366;SDS011;45163;47.690;11.770;2022-07-23T09:42:34;3.55;;;3.08;;
59366;SDS011;45163;47.690;11.770;2022-07-23T09:45:01;3.50;;;3.20;;
59366;SDS011;45163;47.690;11.770;2022-07-23T09:47:29;4.85;;;2.90;;
59366;SDS011;45163;47.690;11.770;2022-07-23T09:50:00;3.17;;;2.88;;
59366;SDS011;45163;47.690;11.770;2022-07-23T09:52:45;5.78;;;3.00;;
59366;SDS011;45163;47.690;11.770;2022-07-23T09:55:14;4.43;;;3.10;;
59366;SDS011;45163;47.690;11.770;2022-07-23T09:57:41;3.45;;;3.00;;
59366;SDS011;45163;47.690;11.770;2022-07-23T10:00:10;4.60;;;3.15;;
59366;SDS011;45163;47.690;11.770;2022-07-23T10:02:37;3.78;;;3.05;;
59366;SDS011;45163;47.690;11.770;2022-07-23T10:05:04;5.22;;;3.05;;
59366;SDS011;45163;47.690;11.770;2022-07-23T10:07:32;3.97;;;3.00;;
59366;SDS011;45163;47.690;11.770;2022-07-23T10:10:01;3.40;;;3.10;;
59366;SDS011;45163;47.690;11.770;2022-07-23T10:12:28;3.88;;;3.45;;
59366;SDS011;45163;47.690;11.770;2022-07-23T10:15:01;4.55;;;3.60;;
59366;SDS011;45163;47.690;11.770;2022-07-23T10:17:28;3.35;;;3.05;;
59366;SDS011;45163;47.690;11.770;2022-07-23T10:19:55;3.47;;;3.10;;
59366;SDS011;45163;47.690;11.770;2022-07-23T10:22:22;4.03;;;3.10;;
59366;SDS011;45163;47.690;11.770;2022-07-23T10:30:04;3.20;;;3.00;;
59366;SDS011;45163;47.690;11.770;2022-07-23T10:41:08;3.83;;;3.40;;
59366;SDS011;45163;47.690;11.770;2022-07-23T10:43:34;3.30;;;3.00;;
59366;SDS011;45163;47.690;11.770;2022-07-23T10:49:30;3.95;;;3.33;;
59366;SDS011;45163;47.690;11.770;2022-07-23T10:52:16;3.47;;;2.97;;
59366;SDS011;45163;47.690;11.770;2022-07-23T10:54:48;4.70;;;3.17;;
59366;SDS011;45163;47.690;11.770;2022-07-23T10:57:17;3.80;;;3.40;;
59366;SDS011;45163;47.690;11.770;2022-07-23T11:02:28;4.32;;;3.47;;
59366;SDS011;45163;47.690;11.770;2022-07-23T11:04:59;4.43;;;3.28;;
59366;SDS011;45163;47.690;11.770;2022-07-23T11:07:36;4.18;;;3.50;;
59366;SDS011;45163;47.690;11.770;2022-07-23T11:10:36;4.95;;;3.20;;
59366;SDS011;45163;47.690;11.770;2022-07-23T11:32:39;4.60;;;3.55;;
59366;SDS011;45163;47.690;11.770;2022-07-23T11:34:43;5.07;;;3.83;;
59366;SDS011;45163;47.690;11.770;2022-07-23T11:39:57;7.13;;;3.67;;
59366;SDS011;45163;47.690;11.770;2022-07-23T11:42:24;4.15;;;3.60;;
59366;SDS011;45163;47.690;11.770;2022-07-23T11:44:51;6.07;;;3.78;;
59366;SDS011;45163;47.690;11.770;2022-07-23T11:47:21;4.78;;;3.80;;
59366;SDS011;45163;47.690;11.770;2022-07-23T11:49:56;3.90;;;3.50;;
59366;SDS011;45163;47.690;11.770;2022-07-23T11:52:24;4.47;;;3.72;;
59366;SDS011;45163;47.690;11.770;2022-07-23T11:54:53;4.13;;;3.75;;
59366;SDS011;45163;47.690;11.770;2022-07-23T11:57:29;6.95;;;3.83;;
59366;SDS011;45163;47.690;11.770;2022-07-23T11:59:58;4.70;;;3.92;;
59366;SDS011;45163;47.690;11.770;2022-07-23T12:02:29;5.97;;;4.20;;
59366;SDS011;45163;47.690;11.770;2022-07-23T12:04:57;5.60;;;3.78;;
59366;SDS011;45163;47.690;11.770;2022-07-23T12:07:28;4.53;;;3.72;;
59366;SDS011;45163;47.690;11.770;2022-07-23T12:09:55;3.97;;;3.60;;
59366;SDS011;45163;47.690;11.770;2022-07-23T12:12:22;4.55;;;3.83;;
59366;SDS011;45163;47.690;11.770;2022-07-23T12:14:56;4.47;;;3.58;;
59366;SDS011;45163;47.690;11.770;2022-07-23T12:17:34;5.18;;;4.07;;
59366;SDS011;45163;47.690;11.770;2022-07-23T12:20:02;4.22;;;3.83;;
59366;SDS011;45163;47.690;11.770;2022-07-23T12:22:35;7.65;;;4.00;;
59366;SDS011;45163;47.690;11.770;2022-07-23T12:25:07;4.93;;;4.00;;
59366;SDS011;45163;47.690;11.770;2022-07-23T12:27:41;5.43;;;3.95;;
59366;SDS011;45163;47.690;11.770;2022-07-23T12:30:18;10.02;;;4.43;;
59366;SDS011;45163;47.690;11.770;2022-07-23T12:32:58;5.50;;;4.22;;
59366;SDS011;45163;47.690;11.770;2022-07-23T12:35:30;7.38;;;4.10;;
59366;SDS011;45163;47.690;11.770;2022-07-23T12:38:02;4.65;;;4.10;;
59366;SDS011;45163;47.690;11.770;2022-07-23T12:40:31;7.40;;;4.10;;
59366;SDS011;45163;47.690;11.770;2022-07-23T12:43:18;4.50;;;3.78;;
59366;SDS011;45163;47.690;11.770;2022-07-23T12:46:04;5.10;;;3.95;;
59366;SDS011;45163;47.690;11.770;2022-07-23T12:53:47;4.57;;;3.85;;
59366;SDS011;45163;47.690;11.770;2022-07-23T12:56:33;5.03;;;3.80;;
59366;SDS011;45163;47.690;11.770;2022-07-23T13:01:30;6.47;;;4.38;;
59366;SDS011;45163;47.690;11.770;2022-07-23T13:04:01;5.32;;;4.03;;
59366;SDS011;45163;47.690;11.770;2022-07-23T13:06:35;4.72;;;3.95;;
59366;SDS011;45163;47.690;11.770;2022-07-23T13:09:13;4.72;;;3.80;;
59366;SDS011;45163;47.690;11.770;2022-07-23T13:11:41;4.65;;;3.72;;
59366;SDS011;45163;47.690;11.770;2022-07-23T13:14:09;5.07;;;4.22;;
59366;SDS011;45163;47.690;11.770;2022-07-23T13:16:35;6.13;;;4.13;;
59366;SDS011;45163;47.690;11.770;2022-07-23T13:19:01;6.38;;;4.07;;
59366;SDS011;45163;47.690;11.770;2022-07-23T13:21:29;4.70;;;4.20;;
59366;SDS011;45163;47.690;11.770;2022-07-23T13:23:56;4.55;;;4.13;;
59366;SDS011;45163;47.690;11.770;2022-07-23T13:26:22;5.22;;;4.22;;
59366;SDS011;45163;47.690;11.770;2022-07-23T13:28:48;4.88;;;4.30;;
59366;SDS011;45163;47.690;11.770;2022-07-23T13:31:16;5.65;;;4.18;;
59366;SDS011;45163;47.690;11.770;2022-07-23T13:33:42;5.88;;;4.18;;
59366;SDS011;45163;47.690;11.770;2022-07-23T13:36:08;4.95;;;4.35;;
59366;SDS011;45163;47.690;11.770;2022-07-23T13:38:34;4.53;;;4.03;;
59366;SDS011;45163;47.690;11.770;2022-07-23T13:41:00;4.38;;;3.97;;
59366;SDS011;45163;47.690;11.770;2022-07-23T13:43:28;5.15;;;4.35;;
59366;SDS011;45163;47.690;11.770;2022-07-23T13:45:55;5.93;;;4.15;;
59366;SDS011;45163;47.690;11.770;2022-07-23T13:48:21;4.32;;;3.70;;
59366;SDS011;45163;47.690;11.770;2022-07-23T13:50:48;5.68;;;4.10;;
59366;SDS011;45163;47.690;11.770;2022-07-23T13:53:16;5.00;;;3.67;;
59366;SDS011;45163;47.690;11.770;2022-07-23T13:55:48;5.78;;;4.28;;
59366;SDS011;45163;47.690;11.770;2022-07-23T13:58:16;4.55;;;4.00;;
59366;SDS011;45163;47.690;11.770;2022-07-23T14:00:44;5.05;;;3.80;;
59366;SDS011;45163;47.690;11.770;2022-07-23T14:03:15;7.28;;;4.10;;
59366;SDS011;45163;47.690;11.770;2022-07-23T14:05:42;5.90;;;3.80;;
59366;SDS011;45163;47.690;11.770;2022-07-23T14:08:08;4.35;;;3.90;;
59366;SDS011;45163;47.690;11.770;2022-07-23T14:10:34;5.20;;;4.15;;
59366;SDS011;45163;47.690;11.770;2022-07-23T14:13:00;6.72;;;3.70;;
59366;SDS011;45163;47.690;11.770;2022-07-23T14:15:28;4.80;;;4.40;;
59366;SDS011;45163;47.690;11.770;2022-07-23T14:17:55;4.88;;;3.63;;
59366;SDS011;45163;47.690;11.770;2022-07-23T14:20:22;4.30;;;3.90;;
59366;SDS011;45163;47.690;11.770;2022-07-23T14:22:48;4.82;;;4.35;;
59366;SDS011;45163;47.690;11.770;2022-07-23T14:25:15;5.05;;;4.55;;
59366;SDS011;45163;47.690;11.770;2022-07-23T14:27:42;5.82;;;4.28;;
59366;SDS011;45163;47.690;11.770;2022-07-23T14:30:08;5.88;;;4.65;;
59366;SDS011;45163;47.690;11.770;2022-07-23T14:32:35;4.90;;;4.40;;
59366;SDS011;45163;47.690;11.770;2022-07-23T14:35:02;6.45;;;4.93;;
59366;SDS011;45163;47.690;11.770;2022-07-23T14:37:29;5.00;;;4.32;;
59366;SDS011;45163;47.690;11.770;2022-07-23T14:39:55;5.10;;;4.18;;
59366;SDS011;45163;47.690;11.770;2022-07-23T14:42:21;4.38;;;3.90;;
59366;SDS011;45163;47.690;11.770;2022-07-23T14:44:47;4.90;;;4.45;;
59366;SDS011;45163;47.690;11.770;2022-07-23T14:47:13;4.55;;;4.10;;
59366;SDS011;45163;47.690;11.770;2022-07-23T14:49:39;6.03;;;4.28;;
59366;SDS011;45163;47.690;11.770;2022-07-23T14:52:05;4.57;;;4.18;;
59366;SDS011;45163;47.690;11.770;2022-07-23T14:54:32;4.53;;;3.92;;
59366;SDS011;45163;47.690;11.770;2022-07-23T14:56:59;5.07;;;4.03;;
59366;SDS011;45163;47.690;11.770;2022-07-23T14:59:26;4.57;;;4.18;;
59366;SDS011;45163;47.690;11.770;2022-07-23T15:01:53;6.35;;;4.38;;
59366;SDS011;45163;47.690;11.770;2022-07-23T15:04:19;4.88;;;4.20;;
59366;SDS011;45163;47.690;11.770;2022-07-23T15:06:45;5.20;;;4.25;;
59366;SDS011;45163;47.690;11.770;2022-07-23T15:09:12;6.20;;;4.90;;
59366;SDS011;45163;47.690;11.770;2022-07-23T15:11:39;4.75;;;4.22;;
59366;SDS011;45163;47.690;11.770;2022-07-23T15:14:06;6.57;;;4.55;;
59366;SDS011;45163;47.690;11.770;2022-07-23T15:16:33;5.28;;;4.57;;
59366;SDS011;45163;47.690;11.770;2022-07-23T15:19:00;5.30;;;4.30;;
59366;SDS011;45163;47.690;11.770;2022-07-23T15:21:28;5.70;;;4.00;;
59366;SDS011;45163;47.690;11.770;2022-07-23T15:23:55;5.05;;;4.22;;
59366;SDS011;45163;47.690;11.770;2022-07-23T15:26:27;5.88;;;4.80;;
59366;SDS011;45163;47.690;11.770;2022-07-23T15:28:54;4.32;;;3.92;;
59366;SDS011;45163;47.690;11.770;2022-07-23T15:31:21;4.53;;;4.13;;
59366;SDS011;45163;47.690;11.770;2022-07-23T15:33:47;5.35;;;4.10;;
59366;SDS011;45163;47.690;11.770;2022-07-23T15:36:13;5.07;;;4.28;;
59366;SDS011;45163;47.690;11.770;2022-07-23T15:38:39;7.18;;;4.30;;
59366;SDS011;45163;47.690;11.770;2022-07-23T15:41:05;5.47;;;3.80;;
59366;SDS011;45163;47.690;11.770;2022-07-23T15:43:31;4.90;;;4.40;;
59366;SDS011;45163;47.690;11.770;2022-07-23T15:45:57;5.75;;;4.68;;
59366;SDS011;45163;47.690;11.770;2022-07-23T15:48:23;5.40;;;4.60;;
59366;SDS011;45163;47.690;11.770;2022-07-23T15:50:49;5.53;;;4.20;;
59366;SDS011;45163;47.690;11.770;2022-07-23T15:53:16;7.22;;;4.50;;
59366;SDS011;45163;47.690;11.770;2022-07-23T15:55:42;5.63;;;4.68;;
59366;SDS011;45163;47.690;11.770;2022-07-23T15:58:10;7.63;;;4.90;;
59366;SDS011;45163;47.690;11.770;2022-07-23T16:00:36;6.57;;;4.07;;
59366;SDS011;45163;47.690;11.770;2022-07-23T16:03:02;9.03;;;4.90;;
59366;SDS011;45163;47.690;11.770;2022-07-23T16:05:28;5.10;;;3.93;;
59366;SDS011;45163;47.690;11.770;2022-07-23T16:08:03;5.47;;;4.30;;
59366;SDS011;45163;47.690;11.770;2022-07-23T16:10:30;5.47;;;4.83;;
59366;SDS011;45163;47.690;11.770;2022-07-23T16:12:56;5.20;;;4.30;;
59366;SDS011;45163;47.690;11.770;2022-07-23T16:15:22;5.30;;;4.13;;
59366;SDS011;45163;47.690;11.770;2022-07-23T16:17:49;6.13;;;4.00;;
59366;SDS011;45163;47.690;11.770;2022-07-23T16:20:16;5.18;;;4.28;;
59366;SDS011;45163;47.690;11.770;2022-07-23T16:22:42;6.90;;;4.27;;
59366;SDS011;45163;47.690;11.770;2022-07-23T16:25:08;6.93;;;4.80;;
59366;SDS011;45163;47.690;11.770;2022-07-23T16:27:36;5.38;;;4.63;;
59366;SDS011;45163;47.690;11.770;2022-07-23T16:30:03;7.22;;;4.88;;
59366;SDS011;45163;47.690;11.770;2022-07-23T16:32:30;8.00;;;5.60;;
59366;SDS011;45163;47.690;11.770;2022-07-23T16:34:56;5.90;;;4.60;;
59366;SDS011;45163;47.690;11.770;2022-07-23T16:37:22;8.02;;;5.07;;
59366;SDS011;45163;47.690;11.770;2022-07-23T16:39:48;5.32;;;4.82;;
59366;SDS011;45163;47.690;11.770;2022-07-23T16:42:14;7.82;;;5.00;;
59366;SDS011;45163;47.690;11.770;2022-07-23T16:44:40;5.47;;;4.72;;
59366;SDS011;45163;47.690;11.770;2022-07-23T16:47:07;5.72;;;4.78;;
59366;SDS011;45163;47.690;11.770;2022-07-23T16:49:34;5.45;;;4.25;;
59366;SDS011;45163;47.690;11.770;2022-07-23T16:52:00;6.15;;;4.53;;
59366;SDS011;45163;47.690;11.770;2022-07-23T16:54:27;4.85;;;4.03;;
59366;SDS011;45163;47.690;11.770;2022-07-23T16:56:53;5.25;;;4.43;;
59366;SDS011;45163;47.690;11.770;2022-07-23T16:59:19;5.55;;;4.78;;
59366;SDS011;45163;47.690;11.770;2022-07-23T17:01:45;6.32;;;4.75;;
59366;SDS011;45163;47.690;11.770;2022-07-23T17:04:11;5.05;;;4.63;;
59366;SDS011;45163;47.690;11.770;2022-07-23T17:06:37;4.45;;;4.05;;
59366;SDS011;45163;47.690;11.770;2022-07-23T17:09:03;5.88;;;4.70;;
59366;SDS011;45163;47.690;11.770;2022-07-23T17:11:30;5.85;;;4.60;;
59366;SDS011;45163;47.690;11.770;2022-07-23T17:13:56;5.97;;;4.60;;
59366;SDS011;45163;47.690;11.770;2022-07-23T17:16:22;8.25;;;4.70;;
59366;SDS011;45163;47.690;11.770;2022-07-23T17:18:48;5.13;;;4.63;;
59366;SDS011;45163;47.690;11.770;2022-07-23T17:21:14;6.47;;;4.75;;
59366;SDS011;45163;47.690;11.770;2022-07-23T17:23:40;6.22;;;4.85;;
59366;SDS011;45163;47.690;11.770;2022-07-23T17:26:06;5.72;;;4.72;;
59366;SDS011;45163;47.690;11.770;2022-07-23T17:28:32;5.55;;;4.55;;
59366;SDS011;45163;47.690;11.770;2022-07-23T17:30:58;6.85;;;4.45;;
59366;SDS011;45163;47.690;11.770;2022-07-23T17:33:24;5.60;;;4.60;;
59366;SDS011;45163;47.690;11.770;2022-07-23T17:35:50;4.90;;;4.40;;
59366;SDS011;45163;47.690;11.770;2022-07-23T17:38:18;6.63;;;4.60;;
59366;SDS011;45163;47.690;11.770;2022-07-23T17:40:44;5.18;;;4.57;;
59366;SDS011;45163;47.690;11.770;2022-07-23T17:43:10;4.70;;;4.03;;
59366;SDS011;45163;47.690;11.770;2022-07-23T17:45:36;4.53;;;4.13;;
59366;SDS011;45163;47.690;11.770;2022-07-23T17:48:02;6.78;;;4.47;;
59366;SDS011;45163;47.690;11.770;2022-07-23T17:50:28;5.43;;;4.75;;
59366;SDS011;45163;47.690;11.770;2022-07-23T17:52:55;7.03;;;4.90;;
59366;SDS011;45163;47.690;11.770;2022-07-23T17:55:22;6.50;;;4.70;;
59366;SDS011;45163;47.690;11.770;2022-07-23T17:57:50;5.10;;;4.57;;
59366;SDS011;45163;47.690;11.770;2022-07-23T18:00:19;7.40;;;4.80;;
59366;SDS011;45163;47.690;11.770;2022-07-23T18:02:48;8.30;;;5.10;;
59366;SDS011;45163;47.690;11.770;2022-07-23T18:05:14;5.68;;;4.63;;
59366;SDS011;45163;47.690;11.770;2022-07-23T18:07:40;5.20;;;4.60;;
59366;SDS011;45163;47.690;11.770;2022-07-23T18:10:07;5.23;;;4.80;;
59366;SDS011;45163;47.690;11.770;2022-07-23T18:12:33;5.50;;;5.00;;
59366;SDS011;45163;47.690;11.770;2022-07-23T18:14:59;5.80;;;5.00;;
59366;SDS011;45163;47.690;11.770;2022-07-23T18:17:25;5.97;;;5.00;;
59366;SDS011;45163;47.690;11.770;2022-07-23T18:19:51;7.23;;;4.90;;
59366;SDS011;45163;47.690;11.770;2022-07-23T18:22:17;7.03;;;5.07;;
59366;SDS011;45163;47.690;11.770;2022-07-23T18:24:43;5.87;;;5.27;;
59366;SDS011;45163;47.690;11.770;2022-07-23T18:27:09;5.67;;;5.07;;
59366;SDS011;45163;47.690;11.770;2022-07-23T18:29:35;5.63;;;4.97;;
59366;SDS011;45163;47.690;11.770;2022-07-23T18:32:01;7.20;;;5.00;;
59366;SDS011;45163;47.690;11.770;2022-07-23T18:34:28;7.53;;;5.50;;